Ojibwa, Wisconsin
Current Conditions -  °F | °C
As of 12:15 AM on Sunday 26 Oct 2014 (Local Time) from KRCX Reporting Station
Clear Clear  
Wind Chill: 40°   Ceiling: Unl
Heat Index: 44°   Visibility: 10mi
Dew Point: 27°   Wind: 8mph
Humidity: 51%   Direction: 300°WNW
Pressure: 30.01"   Gusts: NA
Location:  45.8°N, 91.12°W
Report Text: KRCX 260515Z AUTO 30007KT 10SM CLR 07/M03 A3001 RMK AO2 T00681027
Loading
Personal Weather Stations






























Interactive Weather Map
Tropical Storm Tracking
New forecast layout! Learn more

10-Day Weather Forecast

Advertisements
Track Severe Weather on mobile